createdAt,value
2022-11-13T00:00:55.782Z,2.17
2022-11-13T00:01:55.785Z,1.54
2022-11-13T00:02:55.800Z,1.96
2022-11-13T00:03:55.777Z,2.28
2022-11-13T00:04:55.786Z,1.33
2022-11-13T00:05:55.814Z,1.33
2022-11-13T00:06:59.116Z,1.01
2022-11-13T00:07:55.829Z,1.96
2022-11-13T00:08:55.916Z,2.38
2022-11-13T00:09:55.917Z,2.07
2022-11-13T00:10:55.927Z,2.38
2022-11-13T00:11:55.937Z,0.80
2022-11-13T00:12:55.938Z,1.01
2022-11-13T00:13:55.937Z,1.96
2022-11-13T00:14:55.934Z,0.69
2022-11-13T00:15:55.918Z,1.65
2022-11-13T00:16:55.995Z,1.01
2022-11-13T00:17:56.006Z,1.01
2022-11-13T00:18:56.024Z,1.22
2022-11-13T00:19:56.014Z,1.86
2022-11-13T00:20:56.009Z,1.75
2022-11-13T00:21:55.999Z,1.44
2022-11-13T00:22:55.999Z,0.80
2022-11-13T00:23:56.011Z,1.75
2022-11-13T00:24:56.001Z,1.54
2022-11-13T00:25:55.987Z,1.65
2022-11-13T00:26:56.051Z,1.75
2022-11-13T00:27:56.123Z,1.22
2022-11-13T00:28:56.255Z,1.22
2022-11-13T00:29:56.216Z,1.75
2022-11-13T00:30:56.283Z,0.90
2022-11-13T00:31:56.342Z,1.86
2022-11-13T00:32:56.423Z,1.65
2022-11-13T00:34:56.443Z,2.07
2022-11-13T00:35:56.512Z,2.48
2022-11-13T00:36:56.583Z,1.65
2022-11-13T00:37:56.572Z,1.33
2022-11-13T00:38:56.573Z,1.33
2022-11-13T00:39:59.624Z,1.33
2022-11-13T00:40:56.603Z,1.96
2022-11-13T00:41:56.678Z,1.65
2022-11-13T00:42:56.663Z,2.48
2022-11-13T00:43:56.673Z,1.86
2022-11-13T00:44:56.663Z,1.54
2022-11-13T00:45:56.741Z,1.44
2022-11-13T00:46:56.734Z,1.54
2022-11-13T00:47:56.725Z,1.96
2022-11-13T00:48:56.792Z,2.17
2022-11-13T00:49:56.919Z,2.59
2022-11-13T00:50:56.915Z,2.17
2022-11-13T00:51:57.006Z,1.33
2022-11-13T00:52:57.016Z,1.65
2022-11-13T00:53:57.015Z,1.44
2022-11-13T00:54:57.005Z,1.65
2022-11-13T00:55:56.997Z,1.75
2022-11-13T00:56:57.004Z,2.38
2022-11-13T00:57:57.006Z,1.65
2022-11-13T00:58:56.999Z,1.96
2022-11-13T00:59:56.988Z,1.65
2022-11-13T01:00:56.980Z,2.90
2022-11-13T01:01:57.080Z,1.65
2022-11-13T01:02:57.117Z,1.54
2022-11-13T01:03:57.107Z,2.07
2022-11-13T01:04:57.109Z,2.17
2022-11-13T01:05:57.162Z,1.54
2022-11-13T01:06:57.155Z,0.80
2022-11-13T01:07:57.169Z,1.44
2022-11-13T01:08:57.173Z,1.01
2022-11-13T01:09:57.193Z,1.22
2022-11-13T01:10:57.208Z,1.22
2022-11-13T01:11:57.207Z,1.22
2022-11-13T01:12:57.291Z,1.44
2022-11-13T01:13:57.231Z,1.01
2022-11-13T01:14:57.385Z,0.90
2022-11-13T01:15:57.243Z,0.90
2022-11-13T01:16:57.277Z,1.01
2022-11-13T01:17:57.346Z,1.12
2022-11-13T01:18:57.314Z,0.90
2022-11-13T01:19:57.311Z,0.90
2022-11-13T01:20:57.291Z,0.69
2022-11-13T01:21:57.352Z,0.47
2022-11-13T01:22:57.361Z,0.80
2022-11-13T01:23:57.391Z,0.90
2022-11-13T01:24:57.380Z,0.47
2022-11-13T01:25:57.368Z,0.80
2022-11-13T01:26:57.364Z,0.58
2022-11-13T01:27:57.342Z,0.47
2022-11-13T01:28:57.437Z,0.69
2022-11-13T01:29:57.452Z,0.69
2022-11-13T01:30:57.492Z,0.90
2022-11-13T01:31:57.576Z,0.00
2022-11-13T01:32:57.580Z,0.69
2022-11-13T01:33:57.571Z,0.80
2022-11-13T01:34:57.582Z,0.47
2022-11-13T01:35:57.589Z,1.12
2022-11-13T01:36:57.564Z,0.90
2022-11-13T01:37:57.571Z,1.12
2022-11-13T01:38:57.555Z,1.01
2022-11-13T01:39:57.634Z,0.80
2022-11-13T01:40:57.630Z,1.22
2022-11-13T01:41:57.645Z,1.22
2022-11-13T01:42:57.634Z,0.47
2022-11-13T01:43:57.665Z,0.90
2022-11-13T01:44:57.703Z,0.90
2022-11-13T01:45:57.667Z,1.01
2022-11-13T01:46:57.748Z,1.12
2022-11-13T01:47:57.755Z,0.58
2022-11-13T01:48:57.759Z,1.22
2022-11-13T01:49:57.740Z,0.90
2022-11-13T01:50:57.746Z,0.80
2022-11-13T01:51:57.743Z,0.58
2022-11-13T01:52:57.740Z,1.22
2022-11-13T01:53:57.746Z,1.22
2022-11-13T01:54:57.756Z,1.22
2022-11-13T01:55:57.743Z,1.01
2022-11-13T01:56:57.830Z,0.80
2022-11-13T01:57:57.821Z,0.69
2022-11-13T01:58:57.825Z,0.80
2022-11-13T01:59:57.828Z,0.80
2022-11-13T02:00:57.822Z,1.44
2022-11-13T02:01:57.917Z,0.58
2022-11-13T02:02:57.838Z,0.69
2022-11-13T02:03:57.825Z,1.33
2022-11-13T02:04:57.828Z,1.65
2022-11-13T02:05:57.840Z,1.01
2022-11-13T02:06:57.903Z,1.01
2022-11-13T02:07:57.837Z,1.01
2022-11-13T02:08:57.827Z,1.22
2022-11-13T02:09:57.831Z,0.58
2022-11-13T02:10:57.827Z,0.80
2022-11-13T02:11:57.843Z,1.12
2022-11-13T02:12:57.848Z,0.90
2022-11-13T02:13:57.830Z,0.58
2022-11-13T02:14:57.838Z,1.33
2022-11-13T02:15:57.809Z,0.69
2022-11-13T02:16:57.900Z,1.01
2022-11-13T02:17:57.908Z,1.44
2022-11-13T02:18:57.892Z,1.01
2022-11-13T02:19:58.020Z,1.33
2022-11-13T02:20:58.033Z,1.86
2022-11-13T02:21:58.112Z,1.96
2022-11-13T02:22:58.124Z,1.33
2022-11-13T02:23:58.128Z,1.12
2022-11-13T02:24:58.153Z,1.65
2022-11-13T02:25:58.158Z,1.75
2022-11-13T02:26:58.142Z,1.01
2022-11-13T02:27:58.241Z,1.75
2022-11-13T02:28:58.253Z,1.12
2022-11-13T02:29:58.273Z,0.90
2022-11-13T02:30:58.318Z,0.90
2022-11-13T02:31:58.338Z,1.12
2022-11-13T02:32:58.353Z,1.33
2022-11-13T02:33:58.383Z,2.17
2022-11-13T02:34:58.395Z,1.96
2022-11-13T02:35:58.393Z,1.54
2022-11-13T02:36:58.383Z,1.54
2022-11-13T02:37:58.446Z,0.90
2022-11-13T02:38:58.425Z,1.44
2022-11-13T02:39:58.536Z,1.44
2022-11-13T02:40:58.536Z,1.22
2022-11-13T02:41:58.544Z,1.01
2022-11-13T02:42:58.548Z,1.96
2022-11-13T02:43:58.541Z,1.86
2022-11-13T02:44:58.608Z,1.22
2022-11-13T02:45:58.613Z,1.65
2022-11-13T02:46:58.661Z,1.44
2022-11-13T02:47:58.667Z,1.75
2022-11-13T02:48:58.693Z,0.80
2022-11-13T02:49:58.726Z,1.22
2022-11-13T02:50:58.719Z,1.44
2022-11-13T02:51:58.749Z,1.44
2022-11-13T02:52:58.804Z,0.58
2022-11-13T02:53:58.808Z,0.69
2022-11-13T02:54:58.788Z,1.33
2022-11-13T02:55:58.845Z,1.33
2022-11-13T02:56:58.865Z,1.86
2022-11-13T02:57:58.879Z,1.96
2022-11-13T02:58:58.890Z,1.33
2022-11-13T02:59:58.907Z,1.12
2022-11-13T03:00:58.927Z,1.12
2022-11-13T03:01:59.028Z,0.80
2022-11-13T03:02:58.941Z,1.54
2022-11-13T03:03:59.072Z,0.90
2022-11-13T03:05:12.093Z,1.22
2022-11-13T03:05:58.940Z,0.90
2022-11-13T03:06:58.956Z,1.01
2022-11-13T03:07:59.002Z,1.75
2022-11-13T03:08:59.024Z,1.22
2022-11-13T03:09:59.055Z,1.54
2022-11-13T03:10:59.077Z,1.65
2022-11-13T03:11:59.096Z,0.80
2022-11-13T03:12:59.140Z,1.12
2022-11-13T03:13:59.119Z,1.22
2022-11-13T03:14:59.192Z,1.01
2022-11-13T03:15:59.191Z,0.80
2022-11-13T03:16:59.210Z,1.65
2022-11-13T03:17:59.230Z,1.22
2022-11-13T03:18:59.219Z,1.65
2022-11-13T03:19:59.230Z,1.22
2022-11-13T03:20:59.245Z,1.65
2022-11-13T03:21:59.266Z,1.01
2022-11-13T03:22:59.279Z,1.75
2022-11-13T03:23:59.283Z,1.01
2022-11-13T03:24:59.283Z,1.33
2022-11-13T03:25:59.332Z,1.33
2022-11-13T03:26:59.312Z,0.47
2022-11-13T03:27:59.401Z,0.58
2022-11-13T03:28:59.397Z,1.01
2022-11-13T03:29:59.392Z,0.90
2022-11-13T03:30:59.421Z,0.58
2022-11-13T03:31:59.435Z,1.33
2022-11-13T03:32:59.452Z,1.86
2022-11-13T03:33:59.443Z,1.75
2022-11-13T03:34:59.532Z,1.01
2022-11-13T03:35:59.530Z,1.22
2022-11-13T03:36:59.554Z,1.01
2022-11-13T03:37:59.566Z,1.12
2022-11-13T03:38:59.566Z,1.33
2022-11-13T03:39:59.562Z,1.33
2022-11-13T03:40:59.587Z,0.90
2022-11-13T03:41:59.583Z,0.69
2022-11-13T03:42:59.575Z,0.90
2022-11-13T03:43:59.591Z,1.22
2022-11-13T03:44:59.571Z,1.12
2022-11-13T03:45:59.632Z,0.80
2022-11-13T03:46:59.725Z,0.80
2022-11-13T03:47:59.715Z,1.44
2022-11-13T03:48:59.693Z,1.44
2022-11-13T03:49:59.762Z,1.54
2022-11-13T03:50:59.824Z,1.86
2022-11-13T03:51:59.923Z,1.44
2022-11-13T03:52:59.909Z,1.75
2022-11-13T03:53:59.994Z,1.33
2022-11-13T03:54:59.964Z,1.44
2022-11-13T03:55:59.954Z,2.28
2022-11-13T03:57:00.037Z,1.33
2022-11-13T03:58:00.021Z,1.33
2022-11-13T03:59:00.005Z,1.01
2022-11-13T04:00:00.005Z,2.59
2022-11-13T04:01:00.105Z,0.90
2022-11-13T04:02:00.205Z,2.28
2022-11-13T04:03:00.146Z,2.48
2022-11-13T04:04:00.157Z,2.90
2022-11-13T04:05:00.153Z,2.79
2022-11-13T04:06:00.147Z,2.07
2022-11-13T04:07:00.236Z,2.59
2022-11-13T04:08:00.171Z,2.07
2022-11-13T04:09:00.164Z,2.48
2022-11-13T04:10:00.160Z,2.17
2022-11-13T04:11:00.146Z,2.48
2022-11-13T04:12:00.164Z,2.48
2022-11-13T04:13:00.167Z,3.10
2022-11-13T04:14:00.172Z,2.79
2022-11-13T04:15:00.159Z,1.86
2022-11-13T04:16:00.147Z,2.59
2022-11-13T04:17:00.226Z,2.90
2022-11-13T04:18:00.224Z,2.69
2022-11-13T04:19:00.207Z,2.17
2022-11-13T04:20:00.279Z,2.90
2022-11-13T04:21:00.259Z,2.90
2022-11-13T04:22:00.327Z,2.69
2022-11-13T04:23:00.408Z,2.90
2022-11-13T04:24:00.437Z,2.07
2022-11-13T04:25:00.419Z,2.69
2022-11-13T04:26:00.499Z,2.69
2022-11-13T04:27:00.519Z,2.69
2022-11-13T04:28:00.537Z,3.00
2022-11-13T04:29:00.563Z,3.20
2022-11-13T04:30:00.541Z,2.48
2022-11-13T04:31:00.552Z,2.69
2022-11-13T04:32:00.550Z,2.48
2022-11-13T04:33:00.543Z,2.79
2022-11-13T04:34:00.561Z,2.90
2022-11-13T04:35:00.585Z,2.38
2022-11-13T04:36:00.586Z,2.28
2022-11-13T04:37:00.588Z,2.69
2022-11-13T04:38:00.580Z,3.00
2022-11-13T04:39:00.590Z,3.10
2022-11-13T04:40:00.613Z,2.69
2022-11-13T04:41:00.601Z,2.48
2022-11-13T04:42:00.671Z,2.59
2022-11-13T04:43:00.680Z,3.00
2022-11-13T04:44:00.716Z,2.90
2022-11-13T04:45:00.712Z,2.38
2022-11-13T04:46:00.702Z,3.61
2022-11-13T04:47:00.771Z,2.79
2022-11-13T04:48:00.791Z,3.40
2022-11-13T04:49:00.787Z,3.10
2022-11-13T04:50:00.775Z,3.40
2022-11-13T04:51:00.836Z,3.20
2022-11-13T04:52:00.845Z,3.30
2022-11-13T04:53:00.867Z,3.40
2022-11-13T04:54:00.883Z,2.48
2022-11-13T04:55:00.876Z,3.71
2022-11-13T04:56:00.877Z,4.01
2022-11-13T04:57:00.872Z,3.10
2022-11-13T04:58:00.880Z,2.69
2022-11-13T04:59:00.926Z,2.48
2022-11-13T05:00:00.943Z,3.30
2022-11-13T05:01:00.993Z,2.69
2022-11-13T05:02:01.028Z,3.10
2022-11-13T05:03:01.055Z,4.01
2022-11-13T05:04:01.037Z,2.28
2022-11-13T05:05:04.903Z,3.40
2022-11-13T05:06:01.109Z,2.90
2022-11-13T05:07:01.146Z,3.20
2022-11-13T05:08:01.126Z,3.20
2022-11-13T05:09:01.147Z,2.90
2022-11-13T05:10:01.140Z,3.40
2022-11-13T05:11:01.166Z,3.51
2022-11-13T05:12:01.146Z,3.91
2022-11-13T05:13:01.226Z,3.20
2022-11-13T05:14:03.621Z,4.21
2022-11-13T05:15:01.359Z,2.79
2022-11-13T05:16:01.369Z,3.91
2022-11-13T05:17:01.358Z,3.30
2022-11-13T05:18:01.337Z,3.71
2022-11-13T05:19:01.418Z,3.51
2022-11-13T05:20:01.426Z,3.61
2022-11-13T05:21:01.425Z,3.91
2022-11-13T05:22:01.439Z,4.30
2022-11-13T05:23:01.477Z,4.21
2022-11-13T05:24:01.556Z,4.70
2022-11-13T05:25:01.539Z,3.91
2022-11-13T05:26:01.598Z,3.91
2022-11-13T05:27:01.698Z,4.01
2022-11-13T05:28:01.695Z,4.30
2022-11-13T05:29:01.677Z,4.01
2022-11-13T05:30:01.690Z,3.91
2022-11-13T05:31:01.680Z,4.21
2022-11-13T05:32:01.652Z,4.30
2022-11-13T05:33:01.710Z,3.71
2022-11-13T05:34:05.723Z,3.51
2022-11-13T05:35:01.821Z,4.01
2022-11-13T05:36:01.823Z,3.40
2022-11-13T05:37:01.822Z,4.01
2022-11-13T05:38:01.823Z,3.81
2022-11-13T05:39:01.842Z,3.61
2022-11-13T05:40:01.884Z,3.71
2022-11-13T05:41:01.869Z,3.20
2022-11-13T05:42:01.865Z,4.01
2022-11-13T05:43:01.857Z,4.50
2022-11-13T05:44:01.860Z,4.01
2022-11-13T05:45:01.870Z,3.81
2022-11-13T05:46:01.867Z,4.11
2022-11-13T05:47:01.922Z,4.60
2022-11-13T05:48:02.014Z,4.70
2022-11-13T05:49:02.005Z,3.00
2022-11-13T05:50:02.010Z,3.91
2022-11-13T05:51:02.031Z,4.21
2022-11-13T05:52:02.030Z,3.51
2022-11-13T05:53:02.023Z,4.60
2022-11-13T05:54:02.092Z,4.40
2022-11-13T05:55:02.143Z,4.30
2022-11-13T05:56:02.242Z,3.61
2022-11-13T05:57:02.252Z,3.91
2022-11-13T05:58:02.292Z,4.11
2022-11-13T05:59:02.272Z,4.11
2022-11-13T06:00:02.247Z,4.60
2022-11-13T06:01:02.339Z,4.30
2022-11-13T06:02:02.484Z,4.60
2022-11-13T06:03:02.347Z,4.30
2022-11-13T06:04:02.335Z,4.01
2022-11-13T06:05:02.343Z,4.40
2022-11-13T06:06:02.324Z,4.40
2022-11-13T06:07:02.351Z,4.11
2022-11-13T06:08:02.415Z,4.70
2022-11-13T06:09:02.394Z,4.60
2022-11-13T06:10:02.395Z,5.09
2022-11-13T06:11:02.405Z,4.01
2022-11-13T06:12:02.410Z,4.99
2022-11-13T06:13:02.435Z,4.30
2022-11-13T06:14:02.464Z,4.70
2022-11-13T06:15:02.492Z,4.60
2022-11-13T06:16:02.517Z,4.80
2022-11-13T06:17:02.535Z,5.19
2022-11-13T06:18:02.595Z,4.60
2022-11-13T06:19:02.626Z,5.19
2022-11-13T06:20:02.648Z,4.60
2022-11-13T06:21:02.668Z,4.11
2022-11-13T06:22:02.697Z,4.11
2022-11-13T06:23:02.758Z,3.81
2022-11-13T06:24:02.776Z,5.19
2022-11-13T06:25:02.794Z,4.80
2022-11-13T06:26:02.846Z,4.70
2022-11-13T06:27:02.888Z,5.09
2022-11-13T06:28:02.892Z,4.70
2022-11-13T06:29:02.908Z,3.81
2022-11-13T06:30:02.902Z,4.11
2022-11-13T06:31:02.947Z,4.21
2022-11-13T06:32:02.958Z,4.11
2022-11-13T06:33:03.019Z,4.21
2022-11-13T06:34:03.035Z,3.81
2022-11-13T06:35:03.077Z,4.30
2022-11-13T06:36:03.060Z,4.30
2022-11-13T06:37:03.146Z,4.01
2022-11-13T06:38:03.105Z,4.70
2022-11-13T06:39:03.170Z,4.30
2022-11-13T06:40:03.172Z,3.71
2022-11-13T06:41:03.220Z,3.71
2022-11-13T06:42:03.228Z,2.59
2022-11-13T06:43:03.257Z,2.79
2022-11-13T06:44:03.650Z,1.75
2022-11-13T06:45:03.349Z,1.22
2022-11-13T06:46:03.419Z,1.33
2022-11-13T06:47:03.449Z,1.44
2022-11-13T06:48:03.516Z,1.44
2022-11-13T06:49:03.694Z,2.17
2022-11-13T06:50:03.585Z,1.54
2022-11-13T06:51:03.661Z,2.17
2022-11-13T06:52:03.702Z,1.54
2022-11-13T06:53:03.711Z,1.75
2022-11-13T06:54:03.744Z,1.65
2022-11-13T06:55:03.805Z,2.17
2022-11-13T06:56:03.894Z,2.38
2022-11-13T06:57:03.949Z,3.00
2022-11-13T06:58:03.972Z,1.86
2022-11-13T06:59:08.143Z,2.59
2022-11-13T07:00:04.095Z,2.59
2022-11-13T07:01:04.123Z,2.59
2022-11-13T07:02:04.076Z,2.28
2022-11-13T07:03:04.103Z,2.38
2022-11-13T07:04:04.180Z,2.69
2022-11-13T07:05:04.173Z,3.40
2022-11-13T07:06:04.225Z,2.69
2022-11-13T07:07:04.314Z,2.90
2022-11-13T07:08:04.313Z,3.40
2022-11-13T07:09:04.391Z,3.71
2022-11-13T07:10:04.416Z,3.10
2022-11-13T07:11:04.468Z,3.00
2022-11-13T07:12:04.485Z,2.59
2022-11-13T07:13:04.538Z,3.10
2022-11-13T07:14:04.594Z,3.81
2022-11-13T07:15:04.629Z,3.20
2022-11-13T07:16:15.814Z,2.90
2022-11-13T07:17:09.641Z,3.40
2022-11-13T07:18:04.786Z,3.20
2022-11-13T07:19:04.806Z,4.01
2022-11-13T07:20:04.892Z,3.51
2022-11-13T07:21:04.845Z,3.51
2022-11-13T07:22:04.867Z,3.40
2022-11-13T07:23:04.894Z,3.51
2022-11-13T07:24:04.876Z,3.51
2022-11-13T07:25:04.956Z,3.00
2022-11-13T07:26:04.949Z,4.11
2022-11-13T07:27:04.973Z,4.40
2022-11-13T07:28:04.979Z,3.71
2022-11-13T07:29:05.033Z,4.11
2022-11-13T07:30:05.123Z,2.69
2022-11-13T07:31:05.161Z,3.91
2022-11-13T07:32:05.189Z,3.10
2022-11-13T07:33:05.191Z,3.61
2022-11-13T07:34:05.249Z,3.00
2022-11-13T07:35:05.324Z,4.11
2022-11-13T07:36:05.352Z,3.71
2022-11-13T07:37:05.370Z,3.91
2022-11-13T07:38:05.370Z,4.30
2022-11-13T07:39:05.419Z,3.40
2022-11-13T07:40:05.481Z,3.81
2022-11-13T07:41:05.506Z,4.11
2022-11-13T07:42:05.551Z,3.81
2022-11-13T07:43:05.555Z,4.30
2022-11-13T07:44:09.133Z,4.70
2022-11-13T07:45:05.643Z,3.81
2022-11-13T07:46:05.645Z,4.21
2022-11-13T07:47:05.689Z,3.81
2022-11-13T07:48:05.756Z,3.71
2022-11-13T07:49:05.744Z,4.01
2022-11-13T07:50:10.738Z,3.81
2022-11-13T07:51:05.862Z,3.91
2022-11-13T07:52:05.875Z,3.40
2022-11-13T07:53:05.980Z,4.21
2022-11-13T07:54:05.963Z,4.50
2022-11-13T07:55:05.964Z,4.21
2022-11-13T07:56:06.005Z,4.21
2022-11-13T07:57:06.003Z,5.09
2022-11-13T07:58:06.099Z,4.40
2022-11-13T07:59:06.133Z,4.50
2022-11-13T08:00:06.142Z,5.28
2022-11-13T08:01:06.249Z,4.99
2022-11-13T08:02:06.137Z,4.50
2022-11-13T08:03:06.166Z,4.60
2022-11-13T08:04:06.145Z,5.09
2022-11-13T08:05:06.145Z,4.99
2022-11-13T08:06:06.155Z,4.50
2022-11-13T08:07:06.272Z,0.00
2022-11-13T08:08:06.276Z,0.00
2022-11-13T08:09:06.276Z,0.00
2022-11-13T08:10:06.315Z,0.00
2022-11-13T08:11:06.335Z,0.00
2022-11-13T08:12:06.355Z,0.00
2022-11-13T08:13:06.399Z,0.00
2022-11-13T08:14:06.399Z,0.00
2022-11-13T08:15:12.126Z,0.00
2022-11-13T08:16:06.495Z,0.00
2022-11-13T08:17:06.548Z,0.00
2022-11-13T08:18:06.629Z,0.00
2022-11-13T08:19:06.688Z,0.00
2022-11-13T08:20:06.670Z,0.00
2022-11-13T08:21:11.870Z,0.00
2022-11-13T08:22:06.731Z,0.00
2022-11-13T08:23:06.817Z,0.00
2022-11-13T08:24:06.828Z,0.00
2022-11-13T08:25:06.879Z,0.00
2022-11-13T08:26:07.008Z,0.00
2022-11-13T08:27:06.983Z,0.00
2022-11-13T08:28:12.825Z,0.00
2022-11-13T08:29:07.000Z,0.00
2022-11-13T08:30:07.071Z,0.00
2022-11-13T08:31:07.114Z,0.00
2022-11-13T08:32:07.121Z,0.00
2022-11-13T08:33:07.191Z,0.00
2022-11-13T08:34:07.253Z,0.00
2022-11-13T08:35:07.234Z,0.00
2022-11-13T08:36:08.167Z,0.00
2022-11-13T08:37:07.321Z,0.00
2022-11-13T08:38:07.396Z,0.00
2022-11-13T08:39:07.372Z,0.00
2022-11-13T08:40:07.432Z,0.00
2022-11-13T08:41:09.524Z,0.00
2022-11-13T08:42:07.544Z,0.00
2022-11-13T08:43:07.588Z,0.00
2022-11-13T08:44:07.689Z,0.00
2022-11-13T08:45:07.735Z,0.00
2022-11-13T08:46:07.786Z,0.00
2022-11-13T08:47:07.834Z,0.00
2022-11-13T08:48:07.878Z,0.00
2022-11-13T08:49:07.949Z,0.00
2022-11-13T08:50:07.985Z,0.00
2022-11-13T08:51:08.052Z,0.00
2022-11-13T08:52:07.995Z,0.00
2022-11-13T08:53:08.016Z,0.00
2022-11-13T08:54:08.018Z,0.00
2022-11-13T08:55:08.072Z,0.00
2022-11-13T08:56:08.970Z,0.00
2022-11-13T08:57:08.179Z,0.00
2022-11-13T08:58:08.223Z,0.00
2022-11-13T08:59:08.938Z,0.00
2022-11-13T09:00:08.338Z,0.00
2022-11-13T09:01:08.397Z,0.00
2022-11-13T09:02:08.442Z,0.00
2022-11-13T09:03:08.452Z,0.00
2022-11-13T09:04:08.487Z,0.00
2022-11-13T09:05:08.546Z,0.00
2022-11-13T09:06:08.569Z,0.00
2022-11-13T09:07:08.622Z,0.00
2022-11-13T09:08:08.571Z,0.00
2022-11-13T09:09:08.600Z,0.00
2022-11-13T09:10:08.590Z,0.00
2022-11-13T09:11:08.650Z,0.00
2022-11-13T09:12:08.640Z,0.00
2022-11-13T09:13:08.632Z,0.00
2022-11-13T09:14:08.619Z,0.00
2022-11-13T09:15:08.742Z,0.00
2022-11-13T09:16:08.746Z,0.00
2022-11-13T09:17:08.762Z,0.00
2022-11-13T09:18:08.736Z,0.00
2022-11-13T09:19:08.791Z,0.00
2022-11-13T09:20:13.594Z,0.00
2022-11-13T09:21:08.803Z,0.00
2022-11-13T09:22:08.864Z,0.00
2022-11-13T09:23:08.927Z,0.00
2022-11-13T09:24:08.915Z,0.00
2022-11-13T09:25:08.944Z,0.00
2022-11-13T09:26:08.944Z,0.00
2022-11-13T09:27:08.935Z,0.00
2022-11-13T09:28:08.989Z,0.00
2022-11-13T09:29:08.985Z,0.00
2022-11-13T09:30:08.989Z,0.00
2022-11-13T09:31:09.038Z,0.00
2022-11-13T09:32:09.041Z,0.00
2022-11-13T09:33:09.048Z,0.00
2022-11-13T09:34:09.082Z,0.00
2022-11-13T09:35:09.100Z,0.00
2022-11-13T09:36:09.128Z,0.00
2022-11-13T09:37:09.204Z,0.00
2022-11-13T09:38:11.448Z,0.00
2022-11-13T09:39:09.218Z,0.00
2022-11-13T09:40:09.192Z,0.00
2022-11-13T09:41:09.928Z,0.00
2022-11-13T09:42:09.240Z,0.00
2022-11-13T09:43:09.270Z,0.00
2022-11-13T09:44:09.311Z,0.00
2022-11-13T09:45:09.308Z,0.00
2022-11-13T09:46:09.321Z,0.00
2022-11-13T09:47:09.321Z,0.00
2022-11-13T09:48:09.332Z,0.00
2022-11-13T09:49:09.375Z,0.00
2022-11-13T09:50:09.461Z,0.00
2022-11-13T09:51:09.454Z,0.00
2022-11-13T09:52:09.440Z,0.00
2022-11-13T09:53:09.433Z,0.00
2022-11-13T09:54:09.494Z,0.00
2022-11-13T09:55:09.544Z,0.00
2022-11-13T09:56:09.580Z,0.00
2022-11-13T09:57:09.693Z,0.00
2022-11-13T09:58:09.661Z,0.00
2022-11-13T09:59:09.696Z,0.00
2022-11-13T10:00:09.750Z,0.00
2022-11-13T10:01:09.831Z,0.00
2022-11-13T10:02:09.812Z,0.00
2022-11-13T10:03:09.819Z,0.00
2022-11-13T10:04:14.070Z,0.00
2022-11-13T10:05:09.883Z,0.00
2022-11-13T10:06:09.909Z,0.00
2022-11-13T10:07:09.943Z,0.80
2022-11-13T10:08:09.970Z,0.00
2022-11-13T10:09:09.949Z,0.00
2022-11-13T10:10:09.979Z,0.00
2022-11-13T10:11:10.000Z,0.00
2022-11-13T10:12:10.052Z,0.00
2022-11-13T10:13:10.079Z,0.00
2022-11-13T10:14:10.153Z,0.00
2022-11-13T10:15:10.113Z,0.00
2022-11-13T10:16:10.163Z,0.00
2022-11-13T10:17:10.219Z,0.00
2022-11-13T10:18:10.286Z,0.00
2022-11-13T10:19:10.334Z,0.00
2022-11-13T10:20:10.357Z,0.00
2022-11-13T10:21:10.428Z,0.00
2022-11-13T10:22:34.862Z,0.00
2022-11-13T10:23:10.471Z,0.00
2022-11-13T10:24:14.192Z,0.00
2022-11-13T10:25:10.566Z,0.00
2022-11-13T10:26:10.623Z,0.00
2022-11-13T10:27:10.644Z,0.00
2022-11-13T10:28:35.044Z,0.00
2022-11-13T10:29:10.941Z,0.00
2022-11-13T10:30:10.810Z,0.00
2022-11-13T10:31:10.843Z,0.00
2022-11-13T10:32:10.886Z,0.00
2022-11-13T10:33:10.896Z,0.00
2022-11-13T10:34:10.851Z,0.00
2022-11-13T10:35:10.978Z,0.00
2022-11-13T10:36:11.121Z,0.00
2022-11-13T10:37:11.483Z,0.00
2022-11-13T10:38:12.201Z,4.11
2022-11-13T10:39:11.953Z,7.54
2022-11-13T10:40:11.982Z,9.42
2022-11-13T10:41:12.066Z,2.69
2022-11-13T10:42:12.419Z,3.30
2022-11-13T10:43:11.675Z,5.57
2022-11-13T10:44:12.830Z,2.17
2022-11-13T10:45:12.457Z,0.00
2022-11-13T10:46:11.145Z,4.21
2022-11-13T10:47:11.219Z,3.91
2022-11-13T10:48:11.211Z,2.48
2022-11-13T10:49:11.195Z,2.38
2022-11-13T10:50:11.273Z,1.65
2022-11-13T10:51:11.278Z,1.65
2022-11-13T10:52:11.265Z,2.28
2022-11-13T10:53:11.324Z,1.96
2022-11-13T10:54:11.306Z,1.22
2022-11-13T10:55:11.296Z,1.96
2022-11-13T10:56:11.345Z,2.48
2022-11-13T10:57:11.402Z,1.96
2022-11-13T10:58:11.466Z,1.65
2022-11-13T10:59:11.545Z,2.79
2022-11-13T11:00:11.626Z,1.96
2022-11-13T11:01:11.621Z,2.17
2022-11-13T11:02:11.612Z,2.07
2022-11-13T11:03:11.636Z,2.07
2022-11-13T11:04:11.716Z,2.07
2022-11-13T11:05:11.716Z,2.69
2022-11-13T11:06:11.699Z,1.86
2022-11-13T11:07:20.349Z,1.75
2022-11-13T11:08:11.877Z,2.17
2022-11-13T11:09:11.781Z,1.96
2022-11-13T11:10:11.827Z,2.69
2022-11-13T11:11:11.821Z,1.75
2022-11-13T11:12:11.880Z,2.07
2022-11-13T11:13:11.952Z,2.28
2022-11-13T11:14:11.954Z,1.96
2022-11-13T11:15:12.011Z,2.17
2022-11-13T11:16:11.991Z,2.07
2022-11-13T11:17:12.037Z,1.65
2022-11-13T11:18:12.112Z,1.96
2022-11-13T11:19:12.125Z,1.86
2022-11-13T11:20:12.083Z,1.75
2022-11-13T11:21:12.134Z,1.75
2022-11-13T11:22:13.056Z,1.75
2022-11-13T11:23:12.236Z,1.75
2022-11-13T11:24:12.208Z,1.65
2022-11-13T11:25:12.270Z,2.07
2022-11-13T11:26:12.286Z,0.00
2022-11-13T11:27:12.362Z,0.00
2022-11-13T11:28:12.328Z,0.00
2022-11-13T11:29:12.415Z,0.00
2022-11-13T11:30:12.319Z,0.00
2022-11-13T11:31:12.326Z,0.00
2022-11-13T11:32:12.311Z,0.00
2022-11-13T11:33:12.328Z,0.00
2022-11-13T11:34:12.395Z,0.00
2022-11-13T11:35:12.383Z,0.00
2022-11-13T11:36:12.390Z,0.00
2022-11-13T11:37:12.437Z,0.00
2022-11-13T11:38:12.458Z,0.00
2022-11-13T11:39:12.541Z,0.00
2022-11-13T11:40:12.572Z,0.00
2022-11-13T11:41:16.590Z,0.00
2022-11-13T11:42:13.352Z,0.00
2022-11-13T11:43:13.585Z,0.00
2022-11-13T11:44:12.695Z,0.00
2022-11-13T11:45:12.707Z,0.00
2022-11-13T11:46:12.685Z,0.00
2022-11-13T11:47:13.435Z,0.00
2022-11-13T11:48:12.801Z,0.00
2022-11-13T11:49:12.865Z,0.00
2022-11-13T11:50:12.852Z,0.00
2022-11-13T11:51:12.901Z,0.00
2022-11-13T11:52:12.905Z,0.00
2022-11-13T11:53:12.948Z,0.00
2022-11-13T11:54:12.936Z,0.00
2022-11-13T11:55:13.016Z,0.00
2022-11-13T11:56:12.971Z,0.00
2022-11-13T11:57:12.983Z,0.00
2022-11-13T11:58:12.982Z,0.00
2022-11-13T11:59:12.972Z,0.00
2022-11-13T12:00:12.960Z,0.00
2022-11-13T12:01:13.032Z,0.00
2022-11-13T12:02:13.176Z,0.00
2022-11-13T12:03:13.085Z,0.00
2022-11-13T12:04:13.205Z,0.00
2022-11-13T12:05:18.583Z,0.00
2022-11-13T12:06:14.725Z,0.00
2022-11-13T12:07:16.795Z,0.00
2022-11-13T12:08:13.258Z,0.00
2022-11-13T12:09:13.208Z,0.00
2022-11-13T12:10:13.521Z,0.00
2022-11-13T12:11:13.165Z,0.00
2022-11-13T12:12:13.206Z,0.00
2022-11-13T12:13:14.664Z,0.00
2022-11-13T12:14:14.993Z,0.00
2022-11-13T12:15:13.365Z,0.00
2022-11-13T12:16:14.250Z,0.00
2022-11-13T12:17:17.240Z,0.00
2022-11-13T12:18:13.351Z,0.00
2022-11-13T12:19:13.449Z,0.00
2022-11-13T12:20:13.518Z,0.00
2022-11-13T12:21:13.505Z,0.00
2022-11-13T12:22:13.485Z,0.00
2022-11-13T12:23:13.610Z,0.00
2022-11-13T12:24:13.672Z,0.00
2022-11-13T12:25:13.670Z,0.00
2022-11-13T12:26:13.712Z,0.00
2022-11-13T12:27:13.738Z,0.00
2022-11-13T12:28:13.758Z,0.00
2022-11-13T12:29:13.834Z,0.00
2022-11-13T12:30:13.823Z,0.00
2022-11-13T12:31:13.875Z,0.00
2022-11-13T12:32:13.914Z,0.00
2022-11-13T12:33:13.957Z,0.00
2022-11-13T12:34:13.984Z,0.00
2022-11-13T12:35:13.988Z,0.00
2022-11-13T12:36:14.008Z,0.00
2022-11-13T12:37:13.938Z,0.00
2022-11-13T12:38:14.087Z,0.00
2022-11-13T12:39:13.947Z,0.00
2022-11-13T12:40:13.969Z,0.00
2022-11-13T12:41:13.980Z,0.00
2022-11-13T12:42:14.013Z,0.00
2022-11-13T12:43:14.221Z,0.00
2022-11-13T12:44:13.994Z,0.00
2022-11-13T12:45:14.058Z,0.00
2022-11-13T12:46:14.143Z,0.00
2022-11-13T12:47:14.166Z,0.00
2022-11-13T12:48:14.150Z,0.00
2022-11-13T12:49:14.199Z,0.00
2022-11-13T12:50:14.254Z,0.00
2022-11-13T12:51:14.337Z,0.00
2022-11-13T12:52:14.363Z,0.00
2022-11-13T12:53:14.406Z,0.00
2022-11-13T12:54:14.430Z,0.00
2022-11-13T12:55:14.466Z,0.00
2022-11-13T12:56:14.484Z,0.00
2022-11-13T12:57:14.485Z,0.00
2022-11-13T12:58:14.455Z,0.00
2022-11-13T12:59:31.611Z,0.00
2022-11-13T13:00:14.579Z,0.00
2022-11-13T13:01:14.670Z,0.00
2022-11-13T13:02:14.629Z,0.00
2022-11-13T13:03:14.655Z,0.00
2022-11-13T13:04:14.665Z,0.00
2022-11-13T13:05:14.687Z,0.00
2022-11-13T13:06:14.697Z,0.00
2022-11-13T13:07:14.849Z,0.00
2022-11-13T13:08:14.782Z,0.00
2022-11-13T13:09:14.828Z,0.00
2022-11-13T13:10:14.897Z,0.00
2022-11-13T13:11:14.895Z,0.00
2022-11-13T13:12:14.890Z,0.00
2022-11-13T13:13:19.544Z,0.00
2022-11-13T13:14:14.961Z,0.00
2022-11-13T13:15:14.970Z,0.00
2022-11-13T13:16:14.981Z,0.00
2022-11-13T13:17:14.991Z,0.00
2022-11-13T13:18:15.062Z,0.00
2022-11-13T13:19:15.082Z,0.00
2022-11-13T13:20:15.104Z,0.00